Reno, Pennsylvania
Current Conditions -  °F | °C
As of 7:35 AM on Monday 26 Jan 2015 (Local Time) from KFKL Reporting Station
Overcast Overcast  
Wind Chill: -13°   Ceiling: 1700
Heat Index: -7°   Visibility: 1.5mi
Dew Point: -10°   Wind: 9mph
Humidity: 80%   Direction: 50°NE
Pressure: 29.75"   Gusts: NA
Location:  41.41°N, 79.75°W
Report Text: KFKL 261235Z AUTO 05008KT 1 1/2SM OVC017 M07/M10 A2975 RMK AO1
Loading
Personal Weather Stations






























Interactive Weather Map New forecast layout! Learn more

10-Day Weather Forecast

Advertisements
Track Severe Weather on mobile